Hovedside
METAR-TAF:

METAR-TAF

Lufthavner :

Røst, Norge

Røst lufthavn

breddegrad: 67-31N, lengdegrad: 012-06E, høyde over havet: 4 m

Gjeldene værobservasjon

Denne rapporten ble laget for 7 timer og 38 minutter siden, klokken 13:50 UTC
Vind 21 kt fra Øst
Temperatur -2°C
Luftfuktighet 74%
Trykk 1034 hPa
Sikt 10 km eller mer
Spredte skyer i en høyde av 2000 ft
Brutte skyer i en høyde av 4300 ft
lette snøbyger

METAR: ENRS 241350Z 09021KT 9999 -SHSN SCT020 BKN043 M02/M06 Q1034

Tid: 22:28 (21:28 UTC)


TAF: fraværende

Værobservasjoner og værvarsel for over 4000 flyplasser (METAR- og TAF-rapporter).

Tilgjengelige stasjoner er representert av de røde og gule prikkene på kartet.

Hold musepekeren over prikken for å se navnet på stasjonen.

Klikk så for å se værobservasjoner og -varsler.

For å forandre kartet kan du klikke på den grønne knappen med svart kryss for å zoome inn, på den grønne knappen med strek for å zoome ut, eller på de grønne pilene for å se tilstøtende kart.


METAR-TAF: